Time;durP1;ratioP1;P1;durP2;ratioP2;P2;SDS_P1;SDS_P2;PMS_P1;PMS_P2;Temp;Humidity;BMP_temperature;BMP_pressure;BME280_temperature;BME280_humidity;BME280_pressure;Samples;Min_cycle;Max_cycle;Signal;HPM_P1;HPM_P2
2020/12/01 00:01:20;;;;;;;11.83;5.43;;;;;;;2.12;100.00;102196.16;4953334;28;20208;-72
2020/12/01 00:03:45;;;;;;;13.63;5.43;;;;;;;2.10;100.00;102203.06;4953728;29;20165;-72
2020/12/01 00:06:11;;;;;;;12.23;5.53;;;;;;;2.23;100.00;102194.31;4953547;29;20424;-73
2020/12/01 00:08:38;;;;;;;17.80;5.83;;;;;;;2.14;100.00;102202.16;4952807;28;20207;-72
2020/12/01 00:11:07;;;;;;;13.80;4.10;;;;;;;2.19;100.00;102185.72;4952346;28;20259;-74
2020/12/01 00:13:34;;;;;;;16.27;6.50;;;;;;;2.16;100.00;102188.31;4952967;29;20478;-73
2020/12/01 00:15:59;;;;;;;19.40;6.50;;;;;;;2.13;100.00;102210.81;4953206;29;20451;-72
2020/12/01 00:18:25;;;;;;;16.97;7.07;;;;;;;2.12;100.00;102181.44;4953319;28;20435;-73
2020/12/01 00:20:51;;;;;;;18.93;5.57;;;;;;;2.19;100.00;102213.34;4953150;28;20534;-72
2020/12/01 00:23:16;;;;;;;22.33;7.83;;;;;;;2.20;100.00;102199.53;4953305;29;20762;-74
2020/12/01 00:25:42;;;;;;;15.10;5.40;;;;;;;2.19;100.00;102203.84;4953110;28;20192;-74
2020/12/01 00:28:07;;;;;;;14.53;5.27;;;;;;;2.22;100.00;102201.22;4952189;28;20685;-74
2020/12/01 00:30:33;;;;;;;17.83;7.13;;;;;;;2.11;100.00;102210.81;4953276;29;20187;-74
2020/12/01 00:32:59;;;;;;;18.33;5.87;;;;;;;2.15;100.00;102214.25;4953260;29;20173;-74
2020/12/01 00:35:28;;;;;;;19.00;7.70;;;;;;;2.10;100.00;102190.94;4953203;29;20326;-75
2020/12/01 00:37:54;;;;;;;23.47;6.63;;;;;;;2.17;100.00;102200.41;4953430;28;20271;-75
2020/12/01 00:40:21;;;;;;;12.10;3.63;;;;;;;2.23;100.00;102207.28;4952886;29;20554;-71
2020/12/01 00:42:46;;;;;;;13.00;4.23;;;;;;;2.21;100.00;102202.09;4952073;28;20293;-73
2020/12/01 00:45:13;;;;;;;18.17;6.40;;;;;;;2.15;100.00;102207.34;4953277;29;20919;-73
2020/12/01 00:47:39;;;;;;;25.10;21.33;;;;;;;2.13;100.00;102209.09;4952596;28;20183;-72
2020/12/01 00:50:08;;;;;;;15.37;5.47;;;;;;;2.06;100.00;102196.19;4952926;28;20424;-73
2020/12/01 00:52:34;;;;;;;15.80;5.10;;;;;;;2.09;100.00;102183.19;4952599;29;20424;-72
2020/12/01 00:54:59;;;;;;;22.37;7.63;;;;;;;2.08;100.00;102186.66;4951068;29;20506;-74
2020/12/01 00:57:25;;;;;;;17.40;4.70;;;;;;;2.04;100.00;102190.13;4951941;28;20180;-75
2020/12/01 00:59:50;;;;;;;24.53;7.70;;;;;;;2.04;100.00;102213.47;4950611;29;20191;-74
2020/12/01 01:02:16;;;;;;;20.53;4.23;;;;;;;2.05;100.00;102194.47;4947727;28;20181;-74
2020/12/01 01:04:41;;;;;;;14.67;5.53;;;;;;;1.97;100.00;102194.53;4947950;29;20203;-73
2020/12/01 01:07:07;;;;;;;13.13;4.50;;;;;;;1.93;100.00;102203.19;4952278;28;20172;-73
2020/12/01 01:09:32;;;;;;;14.63;5.90;;;;;;;1.89;100.00;102183.34;4952073;28;20169;-72
2020/12/01 01:11:58;;;;;;;14.93;4.60;;;;;;;2.02;100.00;102204.84;4952327;29;20209;-72
2020/12/01 01:14:23;;;;;;;13.73;4.67;;;;;;;2.08;100.00;102184.06;4951611;29;20176;-73
2020/12/01 01:16:49;;;;;;;14.03;4.80;;;;;;;2.01;100.00;102197.94;4952273;28;20204;-73
2020/12/01 01:19:14;;;;;;;15.87;6.17;;;;;;;2.08;100.00;102204.81;4952281;28;20211;-71
2020/12/01 01:21:47;;;;;;;17.00;7.23;;;;;;;2.01;100.00;102192.75;4951829;29;20267;-72
2020/12/01 01:24:17;;;;;;;20.43;7.63;;;;;;;2.05;100.00;102199.66;4952143;28;20184;-72
2020/12/01 01:26:51;;;;;;;15.63;6.67;;;;;;;1.90;100.00;102178.16;4952846;28;20887;-75
2020/12/01 01:29:17;;;;;;;20.83;6.73;;;;;;;2.03;100.00;102171.13;4952020;28;20420;-73
2020/12/01 01:31:43;;;;;;;12.63;4.70;;;;;;;2.06;100.00;102157.31;4952027;29;20522;-76
2020/12/01 01:34:09;;;;;;;16.13;6.10;;;;;;;2.05;100.00;102173.75;4950477;28;20894;-76
2020/12/01 01:36:35;;;;;;;14.70;5.90;;;;;;;1.99;100.00;102159.09;4952140;28;20937;-77
2020/12/01 01:39:03;;;;;;;16.17;5.50;;;;;;;2.07;100.00;102149.50;4953975;28;20177;-74
2020/12/01 01:41:31;;;;;;;15.70;5.63;;;;;;;2.09;100.00;102170.22;4952607;29;20431;-73
2020/12/01 01:43:56;;;;;;;15.00;6.33;;;;;;;2.13;100.00;102166.75;4955988;28;20961;-73
2020/12/01 01:46:41;;;;;;;17.53;7.97;;;;;;;2.07;100.00;102183.22;4955246;29;20420;-74
2020/12/01 01:49:12;;;;;;;24.33;5.93;;;;;;;2.00;100.00;102178.94;4955509;28;20661;-73
2020/12/01 01:51:40;;;;;;;14.20;4.70;;;;;;;2.11;100.00;102177.09;4955034;29;20430;-73
2020/12/01 01:54:07;;;;;;;18.70;6.00;;;;;;;2.12;100.00;102180.59;4955550;28;20456;-73
2020/12/01 01:56:39;;;;;;;17.20;5.30;;;;;;;2.01;100.00;102169.44;4955307;28;20464;-73
2020/12/01 01:59:07;;;;;;;15.60;4.87;;;;;;;2.09;100.00;102165.03;4953884;28;20466;-72
2020/12/01 02:01:33;;;;;;;13.53;3.97;;;;;;;2.10;100.00;102146.88;4955131;28;20451;-73
2020/12/01 02:04:04;;;;;;;11.93;4.60;;;;;;;2.11;100.00;102177.09;4954672;28;20798;-72
2020/12/01 02:06:55;;;;;;;10.17;3.70;;;;;;;2.13;100.00;102175.38;4955668;29;20949;-74
2020/12/01 02:09:47;;;;;;;11.90;3.30;;;;;;;2.19;100.00;102171.84;4954764;29;20502;-73
2020/12/01 02:12:15;;;;;;;12.80;3.83;;;;;;;2.14;100.00;102176.25;4944346;28;20506;-73
2020/12/01 02:14:47;;;;;;;19.93;4.80;;;;;;;2.16;100.00;102182.28;4969813;28;20939;-73
2020/12/01 02:17:19;;;;;;;15.47;5.20;;;;;;;2.11;100.00;102171.91;4955126;28;20467;-72
2020/12/01 02:19:46;;;;;;;12.87;4.07;;;;;;;2.13;100.00;102185.75;4955655;28;21000;-75
2020/12/01 02:22:15;;;;;;;11.17;3.70;;;;;;;2.16;100.00;102177.09;4955210;29;20419;-73
2020/12/01 02:24:40;;;;;;;15.73;5.33;;;;;;;2.01;100.00;102172.03;4955207;28;20420;-74
2020/12/01 02:27:06;;;;;;;12.67;3.97;;;;;;;2.10;100.00;102175.41;4955426;28;20431;-73
2020/12/01 02:29:35;;;;;;;14.13;4.87;;;;;;;2.00;100.00;102188.44;4969977;28;20185;-75
2020/12/01 02:32:02;;;;;;;17.70;5.63;;;;;;;2.12;100.00;102170.22;4954774;28;20204;-73
2020/12/01 02:34:38;;;;;;;10.60;3.33;;;;;;;2.01;100.00;102170.28;4955265;29;20840;-75
2020/12/01 02:37:05;;;;;;;13.17;3.70;;;;;;;2.03;100.00;102185.81;4954751;29;20549;-76
2020/12/01 02:39:31;;;;;;;13.90;5.30;;;;;;;2.13;100.00;102166.75;4955061;29;20431;-74
2020/12/01 02:41:59;;;;;;;11.03;4.20;;;;;;;2.05;100.00;102168.56;4948173;29;20424;-73
2020/12/01 02:44:26;;;;;;;15.33;4.10;;;;;;;2.08;100.00;102153.81;4954161;28;21600;-71
2020/12/01 02:46:53;;;;;;;16.60;4.40;;;;;;;2.07;100.00;102152.09;4955073;28;20961;-73
2020/12/01 02:49:20;;;;;;;12.67;4.40;;;;;;;2.10;100.00;102148.63;4954365;28;20420;-72
2020/12/01 02:51:46;;;;;;;17.03;6.27;;;;;;;1.99;100.00;102132.31;4954622;28;20858;-72
2020/12/01 02:54:11;;;;;;;11.10;3.67;;;;;;;2.04;100.00;102166.81;4954749;29;20431;-74
2020/12/01 02:56:37;;;;;;;9.17;3.30;;;;;;;1.88;100.00;102153.13;4954118;29;20526;-75
2020/12/01 02:59:03;;;;;;;12.73;4.47;;;;;;;1.93;100.00;102148.78;4954041;28;20169;-72
2020/12/01 03:01:28;;;;;;;13.10;2.53;;;;;;;2.00;100.00;102144.41;4954310;28;20180;-75
2020/12/01 03:03:53;;;;;;;12.27;4.07;;;;;;;1.91;100.00;102150.53;4954146;29;20519;-76
2020/12/01 03:06:20;;;;;;;16.83;4.80;;;;;;;2.04;100.00;102149.56;4954197;28;20187;-75
2020/12/01 03:08:47;;;;;;;12.17;4.73;;;;;;;1.95;100.00;102160.81;4954552;29;20188;-75
2020/12/01 03:11:13;;;;;;;11.20;3.53;;;;;;;1.92;100.00;102150.50;4954491;29;20435;-73
2020/12/01 03:13:39;;;;;;;11.93;4.27;;;;;;;1.95;100.00;102172.94;4953511;29;20420;-73
2020/12/01 03:16:09;;;;;;;12.03;4.13;;;;;;;2.02;100.00;102182.38;4953702;29;20200;-73
2020/12/01 03:18:39;;;;;;;15.63;4.77;;;;;;;2.06;100.00;102183.22;4953755;28;20467;-71
2020/12/01 03:21:05;;;;;;;15.37;5.00;;;;;;;1.93;100.00;102183.31;4943811;29;20424;-75
2020/12/01 03:23:31;;;;;;;10.27;3.43;;;;;;;1.99;100.00;102186.75;4954496;28;20511;-74
2020/12/01 03:25:58;;;;;;;17.00;6.33;;;;;;;2.01;100.00;102172.88;4953404;29;20435;-73
2020/12/01 03:28:23;;;;;;;14.20;4.00;;;;;;;1.99;100.00;102185.00;4953901;28;20432;-73
2020/12/01 03:30:49;;;;;;;17.80;4.53;;;;;;;2.09;100.00;102188.38;4953655;28;20454;-75
2020/12/01 03:33:14;;;;;;;13.63;4.60;;;;;;;2.16;100.00;102190.03;4953790;28;20176;-75
2020/12/01 03:35:40;;;;;;;11.67;5.07;;;;;;;2.12;100.00;102190.97;4953617;28;20251;-74
2020/12/01 03:38:06;;;;;;;10.67;4.20;;;;;;;2.19;100.00;102187.41;4953376;29;20239;-73
2020/12/01 03:40:31;;;;;;;10.47;3.67;;;;;;;2.02;100.00;102200.53;4953894;29;20188;-74
2020/12/01 03:42:57;;;;;;;15.17;4.40;;;;;;;2.06;100.00;102193.59;4954536;29;20173;-74
2020/12/01 03:45:23;;;;;;;15.90;5.47;;;;;;;2.17;100.00;102189.16;4953141;29;20424;-73
2020/12/01 03:47:52;;;;;;;17.60;7.17;;;;;;;2.12;100.00;102199.59;4953442;28;20255;-73
2020/12/01 03:50:18;;;;;;;17.57;4.50;;;;;;;2.16;100.00;102177.09;4952587;28;20184;-74
2020/12/01 03:52:44;;;;;;;12.20;4.17;;;;;;;2.17;100.00;102209.91;4952632;28;20490;-72
2020/12/01 03:55:09;;;;;;;12.80;4.57;;;;;;;2.09;100.00;102216.88;4953447;28;20245;-75
2020/12/01 03:57:40;;;;;;;16.63;4.33;;;;;;;2.15;100.00;102216.84;4952096;28;20176;-73
2020/12/01 04:00:11;;;;;;;10.37;4.60;;;;;;;2.16;100.00;102210.78;4951820;28;20184;-74
2020/12/01 04:02:37;;;;;;;11.17;4.80;;;;;;;2.03;100.00;102211.75;4953116;28;20416;-72
2020/12/01 04:05:04;;;;;;;13.60;5.30;;;;;;;2.23;100.00;102200.34;4953655;29;20419;-73
2020/12/01 04:07:30;;;;;;;11.50;4.10;;;;;;;2.19;100.00;102210.75;4952732;29;20251;-73
2020/12/01 04:09:57;;;;;;;12.40;4.83;;;;;;;2.15;100.00;102198.69;4953676;28;20404;-72
2020/12/01 04:12:24;;;;;;;12.90;5.10;;;;;;;2.13;100.00;102205.63;4953225;29;20515;-75
2020/12/01 04:14:49;;;;;;;15.40;5.37;;;;;;;2.07;100.00;102203.94;4952689;29;20856;-73
2020/12/01 04:17:15;;;;;;;13.27;5.50;;;;;;;2.14;100.00;102194.38;4952870;28;20961;-73
2020/12/01 04:19:41;;;;;;;13.80;4.27;;;;;;;2.02;100.00;102195.34;4952840;29;20172;-73
2020/12/01 04:22:07;;;;;;;10.83;4.80;;;;;;;1.94;100.00;102197.13;4952662;28;20256;-74
2020/12/01 04:24:32;;;;;;;14.30;4.70;;;;;;;1.98;100.00;102185.88;4953589;29;20507;-74
2020/12/01 04:26:58;;;;;;;12.80;5.50;;;;;;;1.95;100.00;102191.06;4953141;29;20566;-73
2020/12/01 04:29:23;;;;;;;15.17;5.80;;;;;;;2.00;100.00;102197.09;4952796;28;20211;-75
2020/12/01 04:31:49;;;;;;;14.93;6.30;;;;;;;2.04;100.00;102197.91;4952333;29;20187;-73
2020/12/01 04:34:14;;;;;;;12.83;4.33;;;;;;;2.05;100.00;102194.47;4952711;28;20294;-75
2020/12/01 04:36:40;;;;;;;11.77;4.27;;;;;;;2.06;100.00;102201.38;4952837;29;20232;-73
2020/12/01 04:39:05;;;;;;;10.80;4.47;;;;;;;2.11;100.00;102187.47;4951210;28;20184;-75
2020/12/01 04:41:31;;;;;;;11.10;3.43;;;;;;;2.21;100.00;102186.53;4952828;29;20184;-73
2020/12/01 04:44:00;;;;;;;13.83;6.20;;;;;;;2.19;100.00;102183.13;4953302;28;20169;-74
2020/12/01 04:46:29;;;;;;;15.73;4.47;;;;;;;2.18;100.00;102176.19;4952267;29;20172;-75
2020/12/01 04:48:59;;;;;;;23.83;6.70;;;;;;;2.17;100.00;102194.34;4953007;28;20455;-74
2020/12/01 04:51:37;;;;;;;16.13;6.20;;;;;;;2.22;100.00;102198.63;4967953;28;20428;-74
2020/12/01 04:54:33;;;;;;;15.73;6.93;;;;;;;2.24;100.00;102201.19;4952698;29;20428;-74
2020/12/01 04:57:27;;;;;;;13.10;4.50;;;;;;;2.14;100.00;102203.03;4951250;29;20467;-73
2020/12/01 05:00:31;;;;;;;11.37;2.87;;;;;;;2.20;100.00;102195.19;4948677;29;20456;-72
2020/12/01 05:03:09;;;;;;;14.87;7.27;;;;;;;2.00;100.00;102197.09;4941312;29;20435;-71
2020/12/01 05:08:40;;;;;;;18.37;7.07;;;;;;;2.10;100.00;102197.88;4952173;29;20435;-72
2020/12/01 05:11:19;;;;;;;11.23;4.37;;;;;;;2.14;100.00;102182.28;4950772;29;20981;-73
2020/12/01 05:13:53;;;;;;;18.03;7.40;;;;;;;2.13;100.00;102196.13;4953846;28;20475;-73
2020/12/01 05:17:26;;;;;;;15.67;6.40;;;;;;;2.24;100.00;102180.47;4953773;29;20475;-75
2020/12/01 05:19:52;;;;;;;11.93;5.20;;;;;;;2.21;100.00;102196.91;4972245;28;20445;-74
2020/12/01 05:22:20;;;;;;;13.37;5.10;;;;;;;2.28;100.00;102181.31;4953499;28;20430;-73
2020/12/01 05:24:50;;;;;;;22.30;5.57;;;;;;;2.33;100.00;102187.28;4955821;29;20180;-75
2020/12/01 05:27:22;;;;;;;21.20;7.23;;;;;;;2.34;100.00;102191.59;4953630;28;20912;-77
2020/12/01 05:29:58;;;;;;;21.67;7.20;;;;;;;2.23;100.00;102202.09;4951205;29;20470;-74
2020/12/01 05:32:39;;;;;;;16.50;6.70;;;;;;;2.32;100.00;102199.41;4937682;28;20432;-75
2020/12/01 05:35:10;;;;;;;18.53;8.13;;;;;;;2.45;100.00;102200.16;4939667;29;20480;-73
2020/12/01 05:37:36;;;;;;;16.63;5.93;;;;;;;2.38;100.00;102206.28;4954559;29;20482;-73
2020/12/01 05:40:08;;;;;;;19.60;6.60;;;;;;;2.31;100.00;102200.28;4954512;29;20408;-71
2020/12/01 05:42:43;;;;;;;18.20;6.03;;;;;;;2.34;100.00;102218.38;4951624;29;20172;-75
2020/12/01 05:45:18;;;;;;;19.27;7.10;;;;;;;2.30;100.00;102216.72;4955418;29;20844;-72
2020/12/01 05:47:51;;;;;;;11.60;3.43;;;;;;;2.34;100.00;102200.25;4947489;28;20450;-73
2020/12/01 05:50:25;;;;;;;18.03;5.60;;;;;;;2.37;100.00;102205.41;4955874;29;20412;-73
2020/12/01 05:53:04;;;;;;;14.93;6.17;;;;;;;2.32;100.00;102203.72;4960823;28;20435;-74
2020/12/01 05:55:30;;;;;;;19.80;7.87;;;;;;;2.25;100.00;102205.50;4954555;29;20443;-74
2020/12/01 05:57:56;;;;;;;19.50;6.93;;;;;;;2.33;100.00;102224.44;4954594;28;20862;-75
2020/12/01 06:00:25;;;;;;;21.43;7.37;;;;;;;2.33;100.00;102221.88;4953785;28;20619;-72
2020/12/01 06:03:17;;;;;;;20.10;7.77;;;;;;;2.30;100.00;102221.91;4951419;28;20431;-73
2020/12/01 06:05:45;;;;;;;18.73;5.87;;;;;;;2.33;100.00;102221.00;4967197;28;20526;-72
2020/12/01 06:08:48;;;;;;;17.47;6.83;;;;;;;2.25;100.00;102230.59;4955430;28;20423;-72
2020/12/01 06:11:35;;;;;;;13.37;5.40;;;;;;;2.30;100.00;102226.22;4964453;28;20891;-71
2020/12/01 06:14:12;;;;;;;18.43;6.87;;;;;;;2.34;100.00;102231.34;4955226;29;20447;-73
2020/12/01 06:16:55;;;;;;;11.00;3.50;;;;;;;2.28;100.00;102222.78;4955149;29;20459;-73
2020/12/01 06:19:46;;;;;;;15.40;5.67;;;;;;;2.19;100.00;102245.34;4955322;29;20497;-74
2020/12/01 06:22:17;;;;;;;23.23;7.93;;;;;;;2.14;100.00;102235.88;4954651;29;20435;-73
2020/12/01 06:25:07;;;;;;;16.20;5.80;;;;;;;2.19;100.00;102234.97;4953099;28;20420;-71
2020/12/01 06:27:57;;;;;;;24.03;8.73;;;;;;;2.15;100.00;102235.84;4939450;29;20431;-73
2020/12/01 06:30:47;;;;;;;14.20;6.07;;;;;;;2.14;100.00;102235.88;4953241;29;20444;-73
2020/12/01 06:33:44;;;;;;;18.67;6.97;;;;;;;2.18;100.00;102240.13;4944797;28;21002;-73
2020/12/01 06:36:28;;;;;;;20.57;8.20;;;;;;;2.33;100.00;102242.59;4941651;29;20492;-72
2020/12/01 06:39:33;;;;;;;19.83;7.67;;;;;;;2.29;100.00;102253.88;4948737;28;20867;-73
2020/12/01 06:42:10;;;;;;;18.37;7.33;;;;;;;2.44;100.00;102250.31;4951035;28;20428;-72
2020/12/01 06:44:38;;;;;;;18.20;6.57;;;;;;;2.24;100.00;102245.28;4947733;28;20524;-72
2020/12/01 06:47:04;;;;;;;21.90;7.80;;;;;;;2.41;100.00;102242.53;4949738;28;20459;-72
2020/12/01 06:49:34;;;;;;;20.63;7.77;;;;;;;2.42;100.00;102250.34;4968163;28;20815;-74
2020/12/01 06:52:10;;;;;;;18.43;6.30;;;;;;;2.38;100.00;102255.53;4952311;28;20195;-74
2020/12/01 06:54:49;;;;;;;12.93;4.90;;;;;;;2.30;100.00;102249.56;4951903;28;20432;-73
2020/12/01 06:57:27;;;;;;;17.43;7.30;;;;;;;2.31;100.00;102244.34;4952664;28;20582;-72
2020/12/01 06:59:53;;;;;;;18.80;7.47;;;;;;;2.37;100.00;102251.25;4968336;28;20420;-73
2020/12/01 07:02:25;;;;;;;18.10;7.00;;;;;;;2.42;100.00;102249.47;4954642;28;20401;-74
2020/12/01 07:05:02;;;;;;;13.13;4.80;;;;;;;2.40;100.00;102233.91;4952997;29;20172;-74
2020/12/01 07:07:32;;;;;;;18.93;7.33;;;;;;;2.49;100.00;102231.25;4953617;29;20991;-73
2020/12/01 07:09:58;;;;;;;20.17;7.30;;;;;;;2.40;100.00;102233.03;4967151;28;20451;-72
2020/12/01 07:12:47;;;;;;;16.00;5.87;;;;;;;2.39;100.00;102242.56;4954515;29;20502;-73
2020/12/01 07:15:29;;;;;;;17.00;6.53;;;;;;;2.43;100.00;102231.31;4952104;28;20428;-71
2020/12/01 07:18:19;;;;;;;15.50;5.80;;;;;;;2.44;100.00;102232.16;4951957;29;20423;-70
2020/12/01 07:21:08;;;;;;;21.23;6.10;;;;;;;2.59;100.00;102233.75;4951342;29;21763;-70
2020/12/01 07:23:49;;;;;;;21.30;7.13;;;;;;;2.44;100.00;102225.22;4940409;29;20441;-71
2020/12/01 07:26:27;;;;;;;20.90;8.47;;;;;;;2.58;100.00;102230.31;4949398;29;20414;-70
2020/12/01 07:29:21;;;;;;;15.10;6.43;;;;;;;2.53;100.00;102236.41;4945513;29;20981;-70
2020/12/01 07:31:48;;;;;;;14.80;4.50;;;;;;;2.56;100.00;102228.56;4951125;29;20879;-70
2020/12/01 07:34:16;;;;;;;13.07;5.50;;;;;;;2.43;100.00;102222.66;4952888;28;20491;-71
2020/12/01 07:36:46;;;;;;;15.17;6.60;;;;;;;2.44;100.00;102225.22;4952586;28;20479;-72
2020/12/01 07:39:24;;;;;;;16.97;5.20;;;;;;;2.37;100.00;102222.72;4948468;28;20450;-72
2020/12/01 07:41:58;;;;;;;13.93;6.00;;;;;;;2.45;100.00;102219.16;4949973;28;20942;-72
2020/12/01 07:44:31;;;;;;;11.50;4.10;;;;;;;2.61;100.00;102213.84;4953680;28;20788;-72
2020/12/01 07:47:00;;;;;;;13.37;3.87;;;;;;;2.61;100.00;102227.66;4952315;28;20427;-72
2020/12/01 07:49:29;;;;;;;12.83;5.20;;;;;;;2.61;100.00;102225.06;4953822;28;20435;-71
2020/12/01 07:52:15;;;;;;;19.30;6.80;;;;;;;2.60;100.00;102235.47;4967946;28;20490;-71
2020/12/01 07:54:45;;;;;;;19.90;7.13;;;;;;;2.38;100.00;102220.09;4953402;29;20412;-70
2020/12/01 07:57:21;;;;;;;14.70;4.90;;;;;;;2.69;100.00;102235.38;4952519;29;20550;-71
2020/12/01 07:59:49;;;;;;;14.77;5.23;;;;;;;2.70;100.00;102213.75;4952714;29;20874;-69
2020/12/01 08:02:16;;;;;;;15.63;5.30;;;;;;;2.58;100.00;102216.47;4952928;28;20408;-70
2020/12/01 08:04:42;;;;;;;16.70;7.70;;;;;;;2.32;100.00;102230.50;4952928;28;20420;-72
2020/12/01 08:07:13;;;;;;;12.70;4.20;;;;;;;2.55;100.00;102232.91;4952182;28;20442;-71
2020/12/01 08:09:39;;;;;;;14.63;6.00;;;;;;;2.55;100.00;102226.84;4953173;28;20172;-71
2020/12/01 08:12:10;;;;;;;21.10;9.00;;;;;;;2.19;100.00;102214.22;4951509;29;20412;-70
2020/12/01 08:14:36;;;;;;;21.20;7.07;;;;;;;2.37;100.00;102228.75;4953356;29;20230;-71
2020/12/01 08:17:14;;;;;;;16.57;6.80;;;;;;;2.74;100.00;102220.63;4967833;28;20546;-71
2020/12/01 08:19:40;;;;;;;15.13;5.67;;;;;;;2.60;100.00;102230.28;4953351;29;20404;-70
2020/12/01 08:22:09;;;;;;;17.43;7.77;;;;;;;2.59;100.00;102232.00;4953325;28;20419;-71
2020/12/01 08:24:42;;;;;;;17.10;4.77;;;;;;;2.65;100.00;102221.59;4953165;29;20409;-70
2020/12/01 08:27:35;;;;;;;15.10;6.47;;;;;;;2.55;100.00;102216.47;4950939;29;20432;-72
2020/12/01 08:30:01;;;;;;;16.23;7.50;;;;;;;2.46;100.00;102220.03;4952700;28;20486;-72
2020/12/01 08:32:42;;;;;;;20.13;6.13;;;;;;;2.59;100.00;102234.63;4951735;28;20790;-72
2020/12/01 08:35:37;;;;;;;15.90;5.57;;;;;;;2.62;100.00;102223.34;4951372;29;20506;-70
2020/12/01 08:38:11;;;;;;;18.83;6.63;;;;;;;2.95;100.00;102212.63;4967337;28;20972;-71
2020/12/01 08:40:45;;;;;;;17.00;7.27;;;;;;;3.03;100.00;102215.97;4952564;28;20412;-71
2020/12/01 08:43:35;;;;;;;16.67;5.93;;;;;;;3.05;100.00;102224.59;4951380;28;20431;-72
2020/12/01 08:46:04;;;;;;;20.37;6.83;;;;;;;2.97;100.00;102221.25;4951705;29;20416;-72
2020/12/01 08:48:38;;;;;;;17.63;6.60;;;;;;;3.08;100.00;102220.25;4951199;28;20482;-71
2020/12/01 08:51:16;;;;;;;16.87;6.33;;;;;;;3.16;100.00;102221.88;4952699;29;20950;-71
2020/12/01 08:53:44;;;;;;;20.47;7.40;;;;;;;3.42;100.00;102213.75;4952544;29;20428;-71
2020/12/01 08:56:20;;;;;;;17.10;6.70;;;;;;;3.43;100.00;102212.03;4951182;28;20474;-72
2020/12/01 08:58:50;;;;;;;13.47;4.10;;;;;;;3.37;100.00;102214.69;4966806;28;20436;-72
2020/12/01 09:01:16;;;;;;;16.23;4.53;;;;;;;3.13;100.00;102205.47;4952015;29;20772;-72
2020/12/01 09:04:02;;;;;;;16.17;4.73;;;;;;;3.11;100.00;102200.31;4951857;28;20930;-71
2020/12/01 09:06:30;;;;;;;25.17;9.20;;;;;;;3.11;100.00;102199.44;4951840;28;20187;-71
2020/12/01 09:09:01;;;;;;;20.43;6.47;;;;;;;3.35;100.00;102196.53;4949522;29;20412;-71
2020/12/01 09:11:57;;;;;;;16.80;7.50;;;;;;;3.34;100.00;102200.88;4945434;28;20415;-71
2020/12/01 09:14:53;;;;;;;21.13;6.90;;;;;;;3.43;100.00;102199.88;4950428;29;20416;-70
2020/12/01 09:23:11;;;;;;;19.70;6.70;;;;;;;3.46;100.00;102193.78;4952220;29;20935;-71
2020/12/01 09:25:37;;;;;;;14.67;5.60;;;;;;;3.14;100.00;102178.63;4950411;28;20431;-71
2020/12/01 09:28:10;;;;;;;23.47;8.03;;;;;;;3.29;100.00;102176.69;4943563;29;20412;-72
2020/12/01 09:30:39;;;;;;;14.67;4.83;;;;;;;3.64;100.00;102164.09;4952235;28;20424;-73
2020/12/01 09:33:07;;;;;;;15.00;5.70;;;;;;;3.88;100.00;102163.72;4946614;28;20437;-72
2020/12/01 09:35:33;;;;;;;20.93;6.60;;;;;;;3.60;100.00;102165.88;4948080;29;20578;-72
2020/12/01 09:37:59;;;;;;;22.93;7.10;;;;;;;3.40;100.00;102152.28;4952204;29;21038;-72
2020/12/01 09:40:26;;;;;;;23.03;7.90;;;;;;;4.21;100.00;102151.03;4952335;29;20412;-73
2020/12/01 09:42:56;;;;;;;17.77;5.83;;;;;;;5.60;100.00;102128.19;4944990;29;20432;-71
2020/12/01 09:45:28;;;;;;;14.70;3.90;;;;;;;5.57;100.00;102128.25;4951607;28;20415;-71
2020/12/01 09:50:27;;;;;;;15.40;7.10;;;;;;;5.97;100.00;102101.22;4952030;29;20400;-72
2020/12/01 10:08:50;;;;;;;22.80;9.13;;;;;;;5.47;100.00;102079.84;4955591;29;20424;-74
2020/12/01 10:14:28;;;;;;;18.43;6.93;;;;;;;4.34;100.00;102077.94;4951661;29;21233;-73
2020/12/01 10:34:55;;;;;;;17.67;5.30;;;;;;;3.65;100.00;102104.31;4953112;28;20468;-71
2020/12/01 10:37:21;;;;;;;18.33;7.45;;;;;;;3.70;100.00;102104.22;4951623;28;20546;-73
2020/12/01 10:39:46;;;;;;;15.67;6.47;;;;;;;3.46;100.00;102111.50;4943228;29;20276;-74
2020/12/01 10:42:14;;;;;;;15.40;5.20;;;;;;;3.29;100.00;102108.31;4952829;29;20625;-72
2020/12/01 10:44:40;;;;;;;17.70;8.70;;;;;;;3.39;100.00;102101.22;4953196;28;20251;-73
2020/12/01 10:47:06;;;;;;;16.77;6.20;;;;;;;3.45;100.00;102120.19;4953338;29;20522;-72
2020/12/01 10:49:32;;;;;;;14.53;4.77;;;;;;;3.60;100.00;102104.38;4951953;28;20443;-72
2020/12/01 10:51:57;;;;;;;16.93;6.07;;;;;;;3.34;100.00;102117.75;4952265;29;20824;-72
2020/12/01 10:54:23;;;;;;;20.10;6.03;;;;;;;3.42;100.00;102112.47;4953353;28;20176;-71
2020/12/01 10:56:50;;;;;;;21.13;5.23;;;;;;;3.19;100.00;102117.13;4952717;29;20219;-71
2020/12/01 10:59:17;;;;;;;16.63;5.90;;;;;;;3.15;100.00;102112.84;4952484;29;20259;-71
2020/12/01 11:01:43;;;;;;;16.10;5.87;;;;;;;3.20;100.00;102111.03;4953087;29;20910;-71
2020/12/01 11:04:09;;;;;;;18.57;5.83;;;;;;;3.25;100.00;102107.50;4951024;29;20487;-72
2020/12/01 11:06:36;;;;;;;15.13;6.00;;;;;;;3.30;100.00;102108.28;4951768;28;20235;-73
2020/12/01 11:09:04;;;;;;;14.37;4.47;;;;;;;3.43;100.00;102098.59;4950519;28;20427;-71
2020/12/01 11:11:29;;;;;;;17.17;5.93;;;;;;;3.45;100.00;102102.00;4952172;28;20488;-70
2020/12/01 11:13:55;;;;;;;23.20;7.83;;;;;;;3.25;100.00;102101.44;4950411;29;20456;-70
2020/12/01 11:16:21;;;;;;;14.77;5.50;;;;;;;3.19;100.00;102093.75;4967004;28;20238;-72
2020/12/01 11:18:46;;;;;;;17.17;5.00;;;;;;;3.12;100.00;102103.38;4951537;28;20177;-70
2020/12/01 11:21:12;;;;;;;15.20;4.10;;;;;;;3.15;100.00;102102.44;4952429;28;20186;-70
2020/12/01 11:23:37;;;;;;;21.77;5.40;;;;;;;2.99;100.00;102088.81;4949094;28;20201;-70
2020/12/01 11:26:03;;;;;;;14.23;5.00;;;;;;;3.13;100.00;102099.03;4952494;29;20184;-71
2020/12/01 11:28:28;;;;;;;16.57;5.30;;;;;;;3.16;100.00;102104.16;4952391;29;20223;-71
2020/12/01 11:30:54;;;;;;;14.73;6.10;;;;;;;3.15;100.00;102095.53;4952373;29;20718;-70
2020/12/01 11:33:19;;;;;;;18.20;4.70;;;;;;;3.15;100.00;102092.06;4952571;29;20200;-72
2020/12/01 11:35:45;;;;;;;14.13;6.57;;;;;;;3.18;100.00;102086.84;4951999;29;20299;-71
2020/12/01 11:38:10;;;;;;;19.13;6.30;;;;;;;3.23;100.00;102085.88;4952667;29;20882;-72
2020/12/01 11:40:36;;;;;;;15.27;5.87;;;;;;;2.99;100.00;102079.31;4951064;29;20207;-71
2020/12/01 11:43:02;;;;;;;15.80;6.43;;;;;;;2.82;100.00;102081.28;4953002;28;20176;-71
2020/12/01 11:45:27;;;;;;;15.93;6.50;;;;;;;3.08;100.00;102070.53;4952943;29;20664;-71
2020/12/01 11:47:53;;;;;;;15.47;6.10;;;;;;;3.11;100.00;102078.28;4951530;29;20482;-71
2020/12/01 11:50:19;;;;;;;18.83;6.00;;;;;;;3.18;100.00;102074.72;4950279;28;20662;-71
2020/12/01 11:52:45;;;;;;;16.30;5.13;;;;;;;3.31;100.00;102080.56;4952147;29;20560;-71
2020/12/01 11:55:10;;;;;;;26.67;5.63;;;;;;;3.31;100.00;102083.16;4950638;28;21001;-71
2020/12/01 11:57:36;;;;;;;16.20;5.30;;;;;;;3.29;100.00;102074.56;4951018;28;20450;-73
2020/12/01 12:00:03;;;;;;;17.13;6.43;;;;;;;3.31;100.00;102059.78;4953981;28;20176;-73
2020/12/01 12:02:28;;;;;;;12.23;4.13;;;;;;;3.33;100.00;102065.84;4948344;28;20172;-72
2020/12/01 12:04:54;;;;;;;37.23;6.40;;;;;;;3.28;100.00;102076.28;4951785;29;20804;-72
2020/12/01 12:07:20;;;;;;;14.87;5.47;;;;;;;3.20;100.00;102066.91;4951079;29;20192;-73
2020/12/01 12:09:45;;;;;;;15.70;4.87;;;;;;;3.25;100.00;102060.78;4965300;28;20180;-73
2020/12/01 12:12:11;;;;;;;16.70;7.00;;;;;;;3.17;100.00;102062.59;4950609;29;20408;-72
2020/12/01 12:14:37;;;;;;;13.03;3.87;;;;;;;3.18;100.00;102068.66;4950946;28;20173;-71
2020/12/01 12:17:02;;;;;;;15.00;5.70;;;;;;;3.06;100.00;102072.28;4950793;28;20200;-72
2020/12/01 12:19:28;;;;;;;13.17;6.10;;;;;;;3.15;100.00;102068.69;4950255;29;20639;-73
2020/12/01 12:21:53;;;;;;;16.47;5.83;;;;;;;3.15;100.00;102069.56;4950932;28;20182;-72